Time;durP1;ratioP1;P1;durP2;ratioP2;P2;SDS_P1;SDS_P2;PMS_P1;PMS_P2;Temp;Humidity;BMP_temperature;BMP_pressure;BME280_temperature;BME280_humidity;BME280_pressure;Samples;Min_cycle;Max_cycle;Signal;HPM_P1;HPM_P2
2022/01/14 00:01:49;;;;;;;34.10;20.10;;;;;;;;;;4926639;28;20650;-66
2022/01/14 00:04:15;;;;;;;41.33;23.40;;;;;;;;;;4944487;28;20308;-67
2022/01/14 00:06:41;;;;;;;34.30;20.33;;;;;;;;;;4951851;28;20238;-67
2022/01/14 00:09:09;;;;;;;33.43;20.63;;;;;;;;;;4939513;28;21119;-67
2022/01/14 00:11:45;;;;;;;35.97;19.57;;;;;;;;;;4945508;28;20235;-66
2022/01/14 00:16:40;;;;;;;30.87;18.80;;;;;;;;;;4941071;28;20246;-68
2022/01/14 00:19:06;;;;;;;33.60;18.20;;;;;;;;;;4934290;28;20599;-68
2022/01/14 00:21:34;;;;;;;34.10;19.77;;;;;;;;;;4912648;28;20236;-67
2022/01/14 00:24:24;;;;;;;34.33;18.73;;;;;;;;;;4912540;28;20238;-67
2022/01/14 00:32:48;;;;;;;30.60;18.30;;;;;;;;;;4913179;28;20258;-67
2022/01/14 00:35:15;;;;;;;31.10;18.53;;;;;;;;;;4912660;28;20239;-67
2022/01/14 00:37:41;;;;;;;31.80;19.00;;;;;;;;;;4925222;28;20773;-68
2022/01/14 00:40:07;;;;;;;32.50;18.77;;;;;;;;;;4918719;28;20467;-67
2022/01/14 00:42:33;;;;;;;31.47;18.00;;;;;;;;;;4913851;28;20235;-67
2022/01/14 00:44:59;;;;;;;33.67;19.40;;;;;;;;;;4915203;28;20257;-67
2022/01/14 00:47:25;;;;;;;31.93;19.43;;;;;;;;;;4908257;28;20270;-66
2022/01/14 00:49:51;;;;;;;27.20;17.20;;;;;;;;;;4900011;29;20258;-67
2022/01/14 00:52:17;;;;;;;30.23;17.67;;;;;;;;;;4918841;28;20242;-66
2022/01/14 00:54:43;;;;;;;31.57;17.40;;;;;;;;;;4913523;28;20240;-66
2022/01/14 00:59:35;;;;;;;30.57;17.03;;;;;;;;;;4919932;28;20310;-67
2022/01/14 01:02:01;;;;;;;26.13;16.43;;;;;;;;;;4928429;28;20311;-67
2022/01/14 01:04:34;;;;;;;26.40;15.87;;;;;;;;;;4915429;28;20245;-67
2022/01/14 01:07:00;;;;;;;30.10;16.87;;;;;;;;;;4904306;28;20705;-67
2022/01/14 01:09:29;;;;;;;27.17;16.43;;;;;;;;;;4901825;28;20227;-66
2022/01/14 01:12:08;;;;;;;29.57;17.23;;;;;;;;;;4909996;28;20239;-67
2022/01/14 01:14:47;;;;;;;27.20;16.43;;;;;;;;;;4910224;28;20228;-66
2022/01/14 01:17:13;;;;;;;28.37;17.17;;;;;;;;;;4906123;28;24978;-67
2022/01/14 01:19:39;;;;;;;29.30;16.80;;;;;;;;;;4913797;28;20224;-67
2022/01/14 01:22:05;;;;;;;28.63;16.77;;;;;;;;;;4922218;28;20804;-67
2022/01/14 01:24:32;;;;;;;32.33;17.60;;;;;;;;;;4937280;28;20379;-68
2022/01/14 01:27:03;;;;;;;28.03;16.37;;;;;;;;;;4915798;28;20263;-67
2022/01/14 01:29:47;;;;;;;28.90;16.90;;;;;;;;;;4914121;28;20509;-66
2022/01/14 01:32:13;;;;;;;31.00;17.27;;;;;;;;;;4934775;28;20938;-68
2022/01/14 01:34:39;;;;;;;30.90;17.43;;;;;;;;;;4939351;28;20235;-67
2022/01/14 01:37:05;;;;;;;30.87;17.13;;;;;;;;;;4923536;28;20242;-66
2022/01/14 01:39:33;;;;;;;27.60;16.87;;;;;;;;;;4944135;28;20866;-67
2022/01/14 01:42:00;;;;;;;29.93;17.77;;;;;;;;;;4947568;28;20229;-68
2022/01/14 01:44:27;;;;;;;29.73;16.83;;;;;;;;;;4955353;28;20233;-68
2022/01/14 01:46:53;;;;;;;28.07;15.90;;;;;;;;;;4945669;28;20252;-66
2022/01/14 01:49:20;;;;;;;25.47;17.20;;;;;;;;;;4949909;28;20238;-67
2022/01/14 01:51:47;;;;;;;25.53;16.07;;;;;;;;;;4926038;28;20286;-67
2022/01/14 01:54:13;;;;;;;25.37;16.03;;;;;;;;;;4945612;28;20231;-67
2022/01/14 01:56:39;;;;;;;25.17;15.40;;;;;;;;;;4937809;28;20234;-67
2022/01/14 01:59:05;;;;;;;25.40;15.73;;;;;;;;;;4918505;28;20260;-66
2022/01/14 02:01:31;;;;;;;24.83;15.93;;;;;;;;;;4902472;28;21163;-66
2022/01/14 02:03:57;;;;;;;28.60;16.33;;;;;;;;;;4921290;28;20228;-67
2022/01/14 02:06:23;;;;;;;31.03;16.60;;;;;;;;;;4941235;28;20238;-66
2022/01/14 02:08:49;;;;;;;26.10;16.10;;;;;;;;;;4938915;28;20356;-67
2022/01/14 02:11:15;;;;;;;25.50;16.17;;;;;;;;;;4940828;28;20839;-66
2022/01/14 02:13:41;;;;;;;23.73;15.07;;;;;;;;;;4931509;28;20313;-66
2022/01/14 02:16:19;;;;;;;23.13;15.60;;;;;;;;;;4934818;28;20816;-65
2022/01/14 02:26:48;;;;;;;25.40;15.17;;;;;;;;;;4940470;28;21109;-67
2022/01/14 02:29:13;;;;;;;22.73;15.83;;;;;;;;;;4920477;28;20259;-67
2022/01/14 02:31:40;;;;;;;22.97;15.13;;;;;;;;;;4931940;28;20241;-67
2022/01/14 02:34:06;;;;;;;22.37;15.27;;;;;;;;;;4915165;28;20315;-66
2022/01/14 02:36:32;;;;;;;24.33;15.47;;;;;;;;;;4924943;28;20700;-66
2022/01/14 02:38:58;;;;;;;24.87;16.00;;;;;;;;;;4951048;28;20240;-67
2022/01/14 02:41:23;;;;;;;28.47;17.37;;;;;;;;;;4939965;28;20234;-69
2022/01/14 02:43:49;;;;;;;27.67;16.23;;;;;;;;;;4945151;28;20309;-67
2022/01/14 02:46:16;;;;;;;23.27;14.97;;;;;;;;;;4940211;28;20442;-67
2022/01/14 02:48:42;;;;;;;22.77;15.90;;;;;;;;;;4937205;28;20243;-67
2022/01/14 02:51:12;;;;;;;26.80;16.00;;;;;;;;;;4948035;28;20780;-67
2022/01/14 02:56:04;;;;;;;24.20;15.80;;;;;;;;;;4940926;28;20666;-67
2022/01/14 02:58:31;;;;;;;26.73;15.77;;;;;;;;;;4940696;28;20619;-67
2022/01/14 03:00:59;;;;;;;26.07;15.53;;;;;;;;;;4922641;28;20230;-67
2022/01/14 03:03:25;;;;;;;22.63;14.67;;;;;;;;;;4945244;28;20234;-67
2022/01/14 03:05:51;;;;;;;24.20;15.50;;;;;;;;;;4914009;28;20283;-67
2022/01/14 03:08:18;;;;;;;26.13;15.90;;;;;;;;;;4926502;28;20284;-67
2022/01/14 03:10:45;;;;;;;23.10;15.73;;;;;;;;;;4922841;28;20685;-67
2022/01/14 03:13:11;;;;;;;25.67;15.87;;;;;;;;;;4944468;28;20630;-68
2022/01/14 03:15:37;;;;;;;23.70;15.17;;;;;;;;;;4936605;28;20235;-67
2022/01/14 03:18:03;;;;;;;24.13;16.23;;;;;;;;;;4945880;28;20244;-67
2022/01/14 03:23:06;;;;;;;22.63;15.67;;;;;;;;;;4939888;28;20253;-66
2022/01/14 03:25:47;;;;;;;26.20;16.13;;;;;;;;;;4936885;28;21528;-66
2022/01/14 03:28:13;;;;;;;23.33;15.37;;;;;;;;;;4943668;28;20307;-66
2022/01/14 03:30:39;;;;;;;24.27;15.67;;;;;;;;;;4941256;28;20350;-66
2022/01/14 03:33:05;;;;;;;23.80;15.90;;;;;;;;;;4925602;28;20231;-66
2022/01/14 03:35:31;;;;;;;25.70;16.40;;;;;;;;;;4942370;28;20235;-66
2022/01/14 03:37:57;;;;;;;24.43;15.53;;;;;;;;;;4948473;28;21656;-66
2022/01/14 03:40:23;;;;;;;26.10;15.57;;;;;;;;;;4936383;28;20607;-67
2022/01/14 03:42:49;;;;;;;25.03;16.10;;;;;;;;;;4945437;28;20228;-67
2022/01/14 03:45:15;;;;;;;21.80;15.20;;;;;;;;;;4942292;28;20223;-67
2022/01/14 03:47:41;;;;;;;24.03;14.90;;;;;;;;;;4947293;28;20231;-67
2022/01/14 03:50:07;;;;;;;23.07;14.37;;;;;;;;;;4933915;28;20736;-67
2022/01/14 03:52:33;;;;;;;23.50;15.80;;;;;;;;;;4940331;28;20762;-67
2022/01/14 03:54:59;;;;;;;22.23;15.03;;;;;;;;;;4951751;28;20234;-67
2022/01/14 03:57:25;;;;;;;24.97;15.97;;;;;;;;;;4945337;28;20226;-67
2022/01/14 03:59:51;;;;;;;24.23;15.50;;;;;;;;;;4929751;28;20604;-67
2022/01/14 04:02:16;;;;;;;22.97;15.80;;;;;;;;;;4945849;28;20329;-67
2022/01/14 04:04:42;;;;;;;23.17;15.30;;;;;;;;;;4936135;28;20943;-67
2022/01/14 04:07:08;;;;;;;23.30;15.53;;;;;;;;;;4941798;28;20234;-67
2022/01/14 04:09:37;;;;;;;23.10;14.90;;;;;;;;;;4934992;28;20244;-67
2022/01/14 04:12:08;;;;;;;21.97;15.30;;;;;;;;;;4942150;28;20244;-67
2022/01/14 04:17:01;;;;;;;24.93;15.63;;;;;;;;;;4921599;28;20708;-67
2022/01/14 04:19:28;;;;;;;25.33;15.57;;;;;;;;;;4938858;28;20290;-67
2022/01/14 04:21:54;;;;;;;24.60;14.90;;;;;;;;;;4955803;28;20246;-67
2022/01/14 04:24:20;;;;;;;28.30;16.03;;;;;;;;;;4932907;28;20374;-67
2022/01/14 04:26:46;;;;;;;25.07;14.97;;;;;;;;;;4932770;28;20241;-67
2022/01/14 04:29:11;;;;;;;22.83;14.67;;;;;;;;;;4924377;28;20231;-67
2022/01/14 04:31:37;;;;;;;23.03;15.27;;;;;;;;;;4940718;28;20233;-67
2022/01/14 04:34:03;;;;;;;23.50;15.17;;;;;;;;;;4936760;28;20245;-67
2022/01/14 04:36:29;;;;;;;24.57;14.80;;;;;;;;;;4940512;28;20470;-67
2022/01/14 04:38:55;;;;;;;23.77;15.37;;;;;;;;;;4939941;28;20285;-66
2022/01/14 04:41:21;;;;;;;24.40;15.57;;;;;;;;;;4940544;28;20302;-66
2022/01/14 04:43:47;;;;;;;27.33;15.43;;;;;;;;;;4943058;28;20333;-67
2022/01/14 04:46:35;;;;;;;22.73;14.03;;;;;;;;;;4943611;28;20472;-66
2022/01/14 04:48:59;;;;;;;21.23;14.53;;;;;;;;;;4945656;28;20241;-66
2022/01/14 04:51:25;;;;;;;24.43;15.13;;;;;;;;;;4948213;28;20529;-67
2022/01/14 04:53:51;;;;;;;21.23;13.90;;;;;;;;;;4941577;28;20234;-66
2022/01/14 04:56:17;;;;;;;22.63;14.10;;;;;;;;;;4942287;28;20231;-66
2022/01/14 04:58:43;;;;;;;19.67;14.13;;;;;;;;;;4953054;28;20280;-66
2022/01/14 05:01:09;;;;;;;21.93;14.70;;;;;;;;;;4917723;28;20229;-66
2022/01/14 05:03:35;;;;;;;22.67;14.33;;;;;;;;;;4958431;28;20230;-66
2022/01/14 05:06:02;;;;;;;20.43;13.50;;;;;;;;;;4948727;28;20235;-66
2022/01/14 05:08:36;;;;;;;22.20;14.17;;;;;;;;;;4946715;28;20323;-66
2022/01/14 05:11:24;;;;;;;21.77;14.50;;;;;;;;;;4933575;28;20636;-66
2022/01/14 05:13:50;;;;;;;19.87;13.90;;;;;;;;;;4939018;28;20234;-66
2022/01/14 05:16:16;;;;;;;21.60;14.47;;;;;;;;;;4919552;28;20266;-66
2022/01/14 05:18:42;;;;;;;21.40;14.13;;;;;;;;;;4943199;28;20246;-66
2022/01/14 05:21:08;;;;;;;17.17;12.63;;;;;;;;;;4929365;28;20861;-66
2022/01/14 05:23:34;;;;;;;20.07;13.57;;;;;;;;;;4935429;28;20244;-66
2022/01/14 05:26:00;;;;;;;19.80;13.13;;;;;;;;;;4951241;28;21251;-67
2022/01/14 05:28:26;;;;;;;19.37;13.63;;;;;;;;;;4929393;28;20624;-67
2022/01/14 05:30:52;;;;;;;19.73;12.70;;;;;;;;;;4922256;28;20247;-67
2022/01/14 05:33:18;;;;;;;18.53;13.50;;;;;;;;;;4936989;28;20591;-67
2022/01/14 05:35:44;;;;;;;19.67;13.63;;;;;;;;;;4906248;28;20235;-67
2022/01/14 05:38:10;;;;;;;19.57;13.33;;;;;;;;;;4933824;28;20321;-67
2022/01/14 05:40:36;;;;;;;20.90;13.73;;;;;;;;;;4919609;28;20670;-67
2022/01/14 05:43:02;;;;;;;21.37;13.27;;;;;;;;;;4932367;28;20721;-67
2022/01/14 05:45:28;;;;;;;20.63;12.93;;;;;;;;;;4937919;28;20705;-67
2022/01/14 05:47:54;;;;;;;19.30;12.60;;;;;;;;;;4942114;28;20456;-66
2022/01/14 05:50:21;;;;;;;19.43;13.00;;;;;;;;;;4919807;28;20272;-67
2022/01/14 05:52:47;;;;;;;20.07;12.43;;;;;;;;;;4942450;28;20256;-66
2022/01/14 05:55:14;;;;;;;18.47;12.67;;;;;;;;;;4939974;28;20234;-67
2022/01/14 05:57:40;;;;;;;21.30;12.77;;;;;;;;;;4925117;28;20247;-66
2022/01/14 06:00:07;;;;;;;22.93;14.03;;;;;;;;;;4899009;28;20224;-66
2022/01/14 06:02:33;;;;;;;21.77;13.23;;;;;;;;;;4913310;28;20281;-67
2022/01/14 06:04:59;;;;;;;20.10;13.77;;;;;;;;;;4923012;28;20446;-66
2022/01/14 06:07:25;;;;;;;21.47;14.30;;;;;;;;;;4935446;28;20274;-66
2022/01/14 06:09:51;;;;;;;19.10;13.40;;;;;;;;;;4921027;28;20238;-66
2022/01/14 06:12:17;;;;;;;20.60;13.60;;;;;;;;;;4930251;28;20238;-67
2022/01/14 06:14:43;;;;;;;24.93;13.43;;;;;;;;;;4939718;28;20250;-66
2022/01/14 06:17:08;;;;;;;20.63;13.60;;;;;;;;;;4947247;28;20230;-67
2022/01/14 06:19:34;;;;;;;20.77;14.13;;;;;;;;;;4924661;28;20238;-66
2022/01/14 06:22:01;;;;;;;21.07;14.40;;;;;;;;;;4932382;28;20583;-66
2022/01/14 06:24:27;;;;;;;20.23;14.20;;;;;;;;;;4921890;28;20307;-66
2022/01/14 06:26:53;;;;;;;20.67;14.00;;;;;;;;;;4946519;28;20678;-67
2022/01/14 06:29:18;;;;;;;22.13;15.10;;;;;;;;;;4942925;28;20231;-67
2022/01/14 06:31:44;;;;;;;22.67;14.63;;;;;;;;;;4933903;28;20252;-68
2022/01/14 06:34:11;;;;;;;23.17;14.17;;;;;;;;;;4947183;28;20321;-67
2022/01/14 06:36:37;;;;;;;22.30;13.67;;;;;;;;;;4903997;28;20237;-67
2022/01/14 06:39:03;;;;;;;19.80;13.37;;;;;;;;;;4948892;28;20229;-67
2022/01/14 06:41:29;;;;;;;24.83;14.20;;;;;;;;;;4935221;28;20238;-67
2022/01/14 06:43:57;;;;;;;20.03;13.70;;;;;;;;;;4949062;28;20377;-67
2022/01/14 06:46:23;;;;;;;24.07;14.87;;;;;;;;;;4944379;28;20232;-67
2022/01/14 06:48:49;;;;;;;20.93;13.63;;;;;;;;;;4950034;28;20274;-67
2022/01/14 06:51:16;;;;;;;22.50;13.97;;;;;;;;;;4929558;28;20952;-66
2022/01/14 06:53:42;;;;;;;20.67;13.83;;;;;;;;;;4942071;28;20231;-67
2022/01/14 06:56:10;;;;;;;21.30;13.87;;;;;;;;;;4946170;28;20666;-67
2022/01/14 06:58:36;;;;;;;21.97;14.13;;;;;;;;;;4946447;28;20333;-67
2022/01/14 07:01:01;;;;;;;17.80;12.63;;;;;;;;;;4951337;28;20246;-68
2022/01/14 07:03:27;;;;;;;23.07;14.07;;;;;;;;;;4942541;28;20330;-65
2022/01/14 07:05:53;;;;;;;23.23;14.43;;;;;;;;;;4940873;28;20241;-66
2022/01/14 07:08:19;;;;;;;20.13;13.37;;;;;;;;;;4924045;28;20228;-66
2022/01/14 07:10:45;;;;;;;22.83;14.67;;;;;;;;;;4950798;28;20296;-65
2022/01/14 07:13:11;;;;;;;22.30;14.00;;;;;;;;;;4952900;28;20230;-66
2022/01/14 07:15:37;;;;;;;20.83;13.87;;;;;;;;;;4947937;28;20282;-66
2022/01/14 07:18:03;;;;;;;19.87;13.43;;;;;;;;;;4947255;28;20812;-66
2022/01/14 07:20:29;;;;;;;21.27;14.47;;;;;;;;;;4923237;28;20714;-67
2022/01/14 07:22:55;;;;;;;21.70;14.23;;;;;;;;;;4950519;28;20720;-67
2022/01/14 07:25:21;;;;;;;22.37;14.33;;;;;;;;;;4935635;28;20269;-66
2022/01/14 07:27:47;;;;;;;20.67;13.40;;;;;;;;;;4918848;28;20932;-67
2022/01/14 07:30:15;;;;;;;22.00;13.77;;;;;;;;;;4928273;28;20508;-66
2022/01/14 07:32:41;;;;;;;21.57;13.90;;;;;;;;;;4950881;28;20226;-66
2022/01/14 07:35:07;;;;;;;21.23;13.23;;;;;;;;;;4943894;28;20238;-66
2022/01/14 07:37:33;;;;;;;19.90;12.80;;;;;;;;;;4945654;28;20858;-66
2022/01/14 07:39:59;;;;;;;25.57;13.60;;;;;;;;;;4940961;28;20416;-66
2022/01/14 07:42:25;;;;;;;22.83;13.57;;;;;;;;;;4922428;28;20239;-66
2022/01/14 07:44:51;;;;;;;19.60;13.23;;;;;;;;;;4919519;28;20677;-66
2022/01/14 07:47:17;;;;;;;21.73;13.77;;;;;;;;;;4924813;28;20242;-66
2022/01/14 07:49:43;;;;;;;22.57;13.23;;;;;;;;;;4933917;28;20709;-66
2022/01/14 07:52:09;;;;;;;20.90;13.87;;;;;;;;;;4941531;28;20258;-66
2022/01/14 07:54:35;;;;;;;21.63;13.43;;;;;;;;;;4945387;28;20385;-66
2022/01/14 07:57:01;;;;;;;22.57;13.60;;;;;;;;;;4945559;28;21743;-67
2022/01/14 07:59:30;;;;;;;20.40;12.90;;;;;;;;;;4945393;28;20238;-67
2022/01/14 08:01:58;;;;;;;20.77;13.67;;;;;;;;;;4945461;28;20475;-68
2022/01/14 08:04:24;;;;;;;20.50;12.63;;;;;;;;;;4926985;28;20239;-67
2022/01/14 08:06:52;;;;;;;24.30;13.23;;;;;;;;;;4948486;28;20242;-66
2022/01/14 08:09:18;;;;;;;20.97;13.97;;;;;;;;;;4945044;28;20306;-67
2022/01/14 08:11:44;;;;;;;19.00;13.17;;;;;;;;;;4949175;28;20238;-66
2022/01/14 08:14:10;;;;;;;22.60;13.27;;;;;;;;;;4947541;28;20350;-66
2022/01/14 08:16:36;;;;;;;20.87;13.67;;;;;;;;;;4926006;28;20231;-66
2022/01/14 08:19:02;;;;;;;21.60;13.17;;;;;;;;;;4953812;28;20227;-67
2022/01/14 08:21:28;;;;;;;24.17;14.17;;;;;;;;;;4944285;28;20274;-66
2022/01/14 08:23:55;;;;;;;20.93;14.07;;;;;;;;;;4940037;28;20231;-66
2022/01/14 08:26:21;;;;;;;21.20;13.80;;;;;;;;;;4936860;28;20708;-66
2022/01/14 08:28:46;;;;;;;21.20;13.87;;;;;;;;;;4944509;28;21393;-67
2022/01/14 08:31:14;;;;;;;24.00;13.47;;;;;;;;;;4948255;28;20246;-66
2022/01/14 08:33:42;;;;;;;20.07;13.03;;;;;;;;;;4935236;28;20293;-66
2022/01/14 08:36:08;;;;;;;23.30;13.47;;;;;;;;;;4939056;28;20723;-67
2022/01/14 08:38:37;;;;;;;18.50;12.70;;;;;;;;;;4944226;28;20245;-66
2022/01/14 08:41:03;;;;;;;21.27;14.23;;;;;;;;;;4929085;28;20239;-68
2022/01/14 08:43:29;;;;;;;21.13;14.03;;;;;;;;;;4948157;28;20731;-67
2022/01/14 08:45:58;;;;;;;23.10;13.93;;;;;;;;;;4923665;28;20302;-66
2022/01/14 08:48:24;;;;;;;20.77;13.77;;;;;;;;;;4928968;28;20243;-67
2022/01/14 08:50:50;;;;;;;22.57;13.37;;;;;;;;;;4924057;28;20254;-67
2022/01/14 08:53:16;;;;;;;18.10;12.67;;;;;;;;;;4928097;28;20284;-68
2022/01/14 08:55:42;;;;;;;20.93;13.60;;;;;;;;;;4931744;28;20258;-68
2022/01/14 08:58:09;;;;;;;20.00;13.30;;;;;;;;;;4933185;28;20558;-67
2022/01/14 09:00:34;;;;;;;22.10;13.83;;;;;;;;;;4919614;28;20241;-68
2022/01/14 09:03:01;;;;;;;18.17;13.30;;;;;;;;;;4960456;28;20239;-68
2022/01/14 09:05:27;;;;;;;21.07;13.33;;;;;;;;;;4920834;28;20232;-67
2022/01/14 09:07:53;;;;;;;20.27;14.10;;;;;;;;;;4929275;28;20278;-67
2022/01/14 09:10:19;;;;;;;20.07;12.70;;;;;;;;;;4934223;28;20269;-67
2022/01/14 09:13:05;;;;;;;23.47;14.23;;;;;;;;;;4914398;28;20734;-67
2022/01/14 09:15:31;;;;;;;23.83;14.60;;;;;;;;;;4935017;28;20610;-67
2022/01/14 09:17:57;;;;;;;24.60;14.23;;;;;;;;;;4935115;28;21439;-67
2022/01/14 09:20:23;;;;;;;19.43;13.07;;;;;;;;;;4938140;28;20251;-67
2022/01/14 09:22:51;;;;;;;23.90;14.63;;;;;;;;;;4943194;28;20234;-68
2022/01/14 09:25:18;;;;;;;19.30;13.77;;;;;;;;;;4918278;28;20269;-68
2022/01/14 09:27:44;;;;;;;20.30;13.70;;;;;;;;;;4908379;28;21233;-68
2022/01/14 09:30:10;;;;;;;24.33;14.37;;;;;;;;;;4923038;28;20234;-68
2022/01/14 09:32:36;;;;;;;21.93;14.60;;;;;;;;;;4909473;28;20577;-68
2022/01/14 09:35:03;;;;;;;23.47;14.63;;;;;;;;;;4933331;28;20817;-68
2022/01/14 09:37:29;;;;;;;22.97;14.17;;;;;;;;;;4910701;28;20265;-68
2022/01/14 09:39:55;;;;;;;23.67;14.37;;;;;;;;;;4931116;28;20222;-68
2022/01/14 09:42:21;;;;;;;20.50;13.97;;;;;;;;;;4938359;28;20603;-67
2022/01/14 09:44:47;;;;;;;20.87;14.80;;;;;;;;;;4925435;28;20265;-68
2022/01/14 09:47:17;;;;;;;24.30;15.57;;;;;;;;;;4912904;28;20238;-67
2022/01/14 09:49:43;;;;;;;22.13;14.43;;;;;;;;;;4920967;28;20234;-67
2022/01/14 09:52:10;;;;;;;26.10;15.23;;;;;;;;;;4941516;28;20234;-68
2022/01/14 09:54:37;;;;;;;22.30;14.17;;;;;;;;;;4939797;28;20731;-67
2022/01/14 09:57:03;;;;;;;21.20;14.50;;;;;;;;;;4928196;28;20230;-68
2022/01/14 09:59:28;;;;;;;20.50;14.47;;;;;;;;;;4933771;28;20399;-68
2022/01/14 10:01:54;;;;;;;21.60;14.57;;;;;;;;;;4939334;28;20272;-68
2022/01/14 10:04:21;;;;;;;19.87;14.13;;;;;;;;;;4919241;28;20238;-68
2022/01/14 10:06:54;;;;;;;20.90;14.07;;;;;;;;;;4922631;28;20242;-68
2022/01/14 10:09:22;;;;;;;22.23;15.07;;;;;;;;;;4923126;28;20245;-68
2022/01/14 10:12:00;;;;;;;21.03;14.20;;;;;;;;;;4926226;28;20816;-68
2022/01/14 10:14:26;;;;;;;20.00;13.53;;;;;;;;;;4947017;28;20625;-67
2022/01/14 10:16:55;;;;;;;21.57;13.70;;;;;;;;;;4948789;28;20309;-68
2022/01/14 10:19:22;;;;;;;20.10;14.77;;;;;;;;;;4944107;28;21102;-67
2022/01/14 10:21:48;;;;;;;22.03;14.37;;;;;;;;;;4910463;28;20552;-67
2022/01/14 10:24:14;;;;;;;27.63;16.47;;;;;;;;;;4944190;28;20236;-68
2022/01/14 10:26:48;;;;;;;26.13;17.80;;;;;;;;;;4927873;28;25767;-67
2022/01/14 10:29:14;;;;;;;29.63;18.67;;;;;;;;;;4917752;28;20630;-67
2022/01/14 10:31:42;;;;;;;25.90;17.17;;;;;;;;;;4928059;28;20239;-67
2022/01/14 10:34:14;;;;;;;27.40;18.03;;;;;;;;;;4941486;28;20753;-68
2022/01/14 10:36:42;;;;;;;27.03;18.30;;;;;;;;;;4921423;28;20716;-67
2022/01/14 10:39:18;;;;;;;29.20;17.53;;;;;;;;;;4929410;28;20242;-67
2022/01/14 10:41:44;;;;;;;28.80;17.90;;;;;;;;;;4930549;28;20249;-67
2022/01/14 10:44:31;;;;;;;26.93;18.73;;;;;;;;;;4936578;28;20231;-67
2022/01/14 10:47:12;;;;;;;28.37;19.40;;;;;;;;;;4936084;28;20277;-69
2022/01/14 10:49:38;;;;;;;31.50;19.67;;;;;;;;;;4927116;28;20223;-68
2022/01/14 10:52:13;;;;;;;30.93;19.57;;;;;;;;;;4931887;28;20306;-67
2022/01/14 10:54:43;;;;;;;32.83;19.40;;;;;;;;;;4941573;28;20242;-67
2022/01/14 10:57:16;;;;;;;32.67;20.63;;;;;;;;;;4935470;28;21766;-67
2022/01/14 10:59:43;;;;;;;31.40;19.43;;;;;;;;;;4935038;28;20235;-68
2022/01/14 11:02:27;;;;;;;29.57;19.57;;;;;;;;;;4907273;28;20240;-67
2022/01/14 11:05:08;;;;;;;33.70;21.40;;;;;;;;;;4937572;28;20598;-67
2022/01/14 11:07:35;;;;;;;31.00;21.03;;;;;;;;;;4932156;28;20235;-68
2022/01/14 11:10:01;;;;;;;31.70;21.43;;;;;;;;;;4924179;28;20290;-68
2022/01/14 11:12:29;;;;;;;30.70;19.67;;;;;;;;;;4933967;28;20326;-67
2022/01/14 11:14:55;;;;;;;29.37;20.33;;;;;;;;;;4930564;28;20738;-68
2022/01/14 11:17:21;;;;;;;33.47;21.10;;;;;;;;;;4931514;28;20234;-68
2022/01/14 11:19:47;;;;;;;35.87;22.90;;;;;;;;;;4926327;28;20513;-68
2022/01/14 11:24:58;;;;;;;35.70;22.07;;;;;;;;;;4919628;28;20247;-68
2022/01/14 11:27:24;;;;;;;33.30;21.53;;;;;;;;;;4936035;28;20234;-67
2022/01/14 11:29:51;;;;;;;34.80;23.63;;;;;;;;;;4921718;28;20278;-68
2022/01/14 11:32:17;;;;;;;32.47;21.63;;;;;;;;;;4924043;28;20239;-67
2022/01/14 11:34:44;;;;;;;34.37;22.43;;;;;;;;;;4920908;28;20243;-67
2022/01/14 11:37:11;;;;;;;36.60;22.90;;;;;;;;;;4933381;28;20230;-67
2022/01/14 11:39:38;;;;;;;37.67;22.87;;;;;;;;;;4920069;28;20756;-67
2022/01/14 11:42:08;;;;;;;33.73;22.77;;;;;;;;;;4919939;28;20715;-66
2022/01/14 11:45:00;;;;;;;33.80;22.87;;;;;;;;;;4928379;28;20236;-69
2022/01/14 11:47:28;;;;;;;37.37;24.83;;;;;;;;;;4904941;28;20238;-67
2022/01/14 11:49:54;;;;;;;38.57;25.37;;;;;;;;;;4934670;28;20238;-68
2022/01/14 11:52:33;;;;;;;39.60;25.17;;;;;;;;;;4929313;28;20606;-68
2022/01/14 11:54:59;;;;;;;38.70;25.70;;;;;;;;;;4921191;28;20231;-67
2022/01/14 11:57:45;;;;;;;39.30;25.97;;;;;;;;;;4910899;28;20236;-68
2022/01/14 12:00:30;;;;;;;39.40;25.63;;;;;;;;;;4919430;28;20230;-67
2022/01/14 12:02:59;;;;;;;40.50;26.10;;;;;;;;;;4925816;28;20468;-67
2022/01/14 12:05:25;;;;;;;43.33;27.03;;;;;;;;;;4928738;28;20242;-67
2022/01/14 12:08:11;;;;;;;47.03;29.10;;;;;;;;;;4931332;28;20251;-67
2022/01/14 12:10:44;;;;;;;45.43;28.13;;;;;;;;;;4921273;28;20225;-67
2022/01/14 12:13:24;;;;;;;42.27;27.57;;;;;;;;;;4918482;28;20230;-68
2022/01/14 12:16:00;;;;;;;47.53;29.07;;;;;;;;;;4927890;28;21551;-68
2022/01/14 12:18:44;;;;;;;44.07;28.10;;;;;;;;;;4929789;28;20242;-68
2022/01/14 12:21:10;;;;;;;44.60;28.10;;;;;;;;;;4938808;28;20246;-66
2022/01/14 12:23:36;;;;;;;43.90;27.10;;;;;;;;;;4902014;28;20240;-67
2022/01/14 12:26:13;;;;;;;42.03;25.23;;;;;;;;;;4940085;28;20245;-67
2022/01/14 12:28:39;;;;;;;44.07;26.57;;;;;;;;;;4936200;28;20223;-67
2022/01/14 12:31:05;;;;;;;47.20;28.40;;;;;;;;;;4941897;28;20234;-66
2022/01/14 12:33:49;;;;;;;44.93;25.70;;;;;;;;;;4945100;28;20287;-66
2022/01/14 12:36:19;;;;;;;45.27;28.57;;;;;;;;;;4922351;28;20311;-66
2022/01/14 12:38:45;;;;;;;47.43;30.17;;;;;;;;;;4947254;28;20281;-66
2022/01/14 12:41:14;;;;;;;45.23;27.30;;;;;;;;;;4924602;28;20234;-66
2022/01/14 12:43:53;;;;;;;39.30;26.70;;;;;;;;;;4948864;28;20759;-67
2022/01/14 12:46:35;;;;;;;44.03;26.80;;;;;;;;;;4941821;28;20595;-67
2022/01/14 12:49:08;;;;;;;43.37;27.03;;;;;;;;;;4941294;28;20608;-67
2022/01/14 12:51:34;;;;;;;42.87;26.53;;;;;;;;;;4950556;28;20231;-67
2022/01/14 12:54:02;;;;;;;40.10;25.03;;;;;;;;;;4943485;28;20228;-67
2022/01/14 12:56:30;;;;;;;46.10;25.93;;;;;;;;;;4949254;28;20239;-69
2022/01/14 12:58:56;;;;;;;42.33;26.23;;;;;;;;;;4954517;28;20231;-67
2022/01/14 13:01:25;;;;;;;42.40;25.37;;;;;;;;;;4957764;28;20737;-67
2022/01/14 13:03:53;;;;;;;41.53;24.80;;;;;;;;;;4953856;28;20241;-68
2022/01/14 13:06:19;;;;;;;42.47;26.30;;;;;;;;;;4927806;28;20261;-68
2022/01/14 13:08:52;;;;;;;38.97;24.27;;;;;;;;;;4948125;28;20778;-67
2022/01/14 13:11:18;;;;;;;41.13;24.70;;;;;;;;;;4929244;28;20245;-67
2022/01/14 13:13:45;;;;;;;46.87;26.60;;;;;;;;;;4931100;28;20237;-68
2022/01/14 13:16:14;;;;;;;42.40;25.00;;;;;;;;;;4943326;28;20230;-68
2022/01/14 13:18:43;;;;;;;41.70;24.00;;;;;;;;;;4922296;28;20257;-68
2022/01/14 13:21:09;;;;;;;38.60;24.23;;;;;;;;;;4914378;28;20306;-68
2022/01/14 13:23:35;;;;;;;40.20;25.07;;;;;;;;;;4919731;28;20457;-68
2022/01/14 13:26:01;;;;;;;39.87;24.40;;;;;;;;;;4922450;28;22111;-67
2022/01/14 13:28:27;;;;;;;41.40;25.67;;;;;;;;;;4927206;28;20255;-68
2022/01/14 13:30:53;;;;;;;42.60;24.60;;;;;;;;;;4929169;28;20243;-68
2022/01/14 13:33:20;;;;;;;41.63;24.67;;;;;;;;;;4923269;28;22077;-68
2022/01/14 13:35:47;;;;;;;43.50;24.83;;;;;;;;;;4927869;28;20238;-68
2022/01/14 13:38:14;;;;;;;43.17;24.33;;;;;;;;;;4923819;28;20769;-67
2022/01/14 13:40:53;;;;;;;44.10;24.67;;;;;;;;;;4925393;28;20274;-67
2022/01/14 13:43:33;;;;;;;39.20;23.87;;;;;;;;;;4931230;28;20225;-68
2022/01/14 13:46:12;;;;;;;44.80;24.23;;;;;;;;;;4914422;28;20245;-68
2022/01/14 13:48:44;;;;;;;44.67;24.87;;;;;;;;;;4955886;28;20365;-68
2022/01/14 13:51:12;;;;;;;39.93;23.57;;;;;;;;;;4925690;28;20243;-67
2022/01/14 13:53:39;;;;;;;44.73;25.07;;;;;;;;;;4917181;28;20249;-67
2022/01/14 13:56:05;;;;;;;43.63;23.50;;;;;;;;;;4938409;28;20228;-69
2022/01/14 13:58:31;;;;;;;46.07;25.67;;;;;;;;;;4929598;28;20302;-68
2022/01/14 14:00:58;;;;;;;42.53;25.43;;;;;;;;;;4924535;28;20236;-68
2022/01/14 14:03:38;;;;;;;43.17;23.33;;;;;;;;;;4929295;28;20235;-68
2022/01/14 14:06:05;;;;;;;42.23;24.03;;;;;;;;;;4921819;28;20289;-68
2022/01/14 14:08:43;;;;;;;43.57;23.33;;;;;;;;;;4920163;28;20231;-67
2022/01/14 14:17:05;;;;;;;43.10;24.27;;;;;;;;;;4911977;28;20250;-68
2022/01/14 14:19:49;;;;;;;38.70;22.93;;;;;;;;;;4906563;28;20236;-67
2022/01/14 14:22:26;;;;;;;39.53;21.93;;;;;;;;;;4904679;28;20235;-68
2022/01/14 14:25:02;;;;;;;37.97;22.70;;;;;;;;;;4896688;28;20242;-67
2022/01/14 14:27:28;;;;;;;41.23;23.27;;;;;;;;;;4894764;28;20231;-68
2022/01/14 14:29:55;;;;;;;42.43;23.30;;;;;;;;;;4912386;28;20830;-68
2022/01/14 14:32:25;;;;;;;40.93;23.03;;;;;;;;;;4905818;28;20706;-68
2022/01/14 14:34:51;;;;;;;39.10;22.03;;;;;;;;;;4904981;28;20240;-67
2022/01/14 14:37:17;;;;;;;41.37;22.50;;;;;;;;;;4903152;28;20419;-67
2022/01/14 14:39:43;;;;;;;38.70;20.37;;;;;;;;;;4892881;28;20244;-67
2022/01/14 14:42:09;;;;;;;37.73;21.90;;;;;;;;;;4910572;28;20238;-67
2022/01/14 14:44:35;;;;;;;37.50;20.77;;;;;;;;;;4909965;28;20248;-67
2022/01/14 14:47:01;;;;;;;41.87;22.43;;;;;;;;;;4906315;28;20239;-67
2022/01/14 14:49:27;;;;;;;42.83;21.20;;;;;;;;;;4906866;28;20262;-67
2022/01/14 14:51:52;;;;;;;43.27;23.17;;;;;;;;;;4900017;28;20230;-68
2022/01/14 14:54:23;;;;;;;40.53;22.07;;;;;;;;;;4897131;28;20236;-67
2022/01/14 14:56:49;;;;;;;38.10;21.83;;;;;;;;;;4900595;28;20242;-67